Weather at Rick's Hilltop Heliport

Public forecast

Using degrees Fahrenheit for public forecast. Weather courtesy of forecast.io.

Closest aviation weather report (METAR) to Rick's Hilltop Heliport

Closest report is Burnet Municipal Kate Craddock Field, 1.3 nm (2.4 km) SSE. Retrieved 2022/01/17 03:53 UTC (39 minutes ago):

KBMQ 170353Z AUTO 00000KT 10SM CLR 04/ A3007 RMK AO2 SLP185 T0039

Closest aviation forecast (TAF) to Rick's Hilltop Heliport

Closest forecast is Killeen-Fort Hood Regional Airport / Robert Gray Army Air Field, 28.5 nm (52.8 km) NE. Retrieved 2022-01-17 00:13 UTC (4 hours ago):

TAF KGRK 170000Z 1700/1806 VRB06KT 9999 SKC 510012 QNH3000INS TX15/1722Z TN00/1713Z